createdAt,value
2019-05-18T00:00:24.022Z,101042.05
2019-05-18T00:03:32.552Z,101041.69
2019-05-18T00:06:51.338Z,101035.52
2019-05-18T00:09:59.978Z,101038.25
2019-05-18T00:13:08.611Z,101043.58
2019-05-18T00:16:17.445Z,101040.61
2019-05-18T00:19:26.088Z,101042.68
2019-05-18T00:22:34.720Z,101036.00
2019-05-18T00:25:43.323Z,101038.61
2019-05-18T00:28:51.957Z,101035.48
2019-05-18T00:32:10.668Z,101037.53
2019-05-18T00:35:19.276Z,101041.19
2019-05-18T00:38:27.933Z,101041.56
2019-05-18T00:41:36.568Z,101036.67
2019-05-18T00:44:45.595Z,101034.73
2019-05-18T00:47:55.218Z,101034.41
2019-05-18T00:51:14.030Z,101034.67
2019-05-18T00:54:22.732Z,101032.48
2019-05-18T00:57:31.409Z,101033.69
2019-05-18T01:00:40.096Z,101035.44
2019-05-18T01:03:48.734Z,101033.84
2019-05-18T01:06:57.350Z,101027.00
2019-05-18T01:10:07.848Z,101020.70
2019-05-18T01:13:16.374Z,101024.80
2019-05-18T01:16:25.032Z,101022.58
2019-05-18T01:19:33.742Z,101018.41
2019-05-18T01:22:52.477Z,101016.70
2019-05-18T01:26:01.012Z,101021.44
2019-05-18T01:29:09.652Z,101020.28
2019-05-18T01:32:18.280Z,101012.78
2019-05-18T01:35:26.875Z,101009.70
2019-05-18T01:38:35.494Z,101006.47
2019-05-18T01:41:44.128Z,101008.74
2019-05-18T01:45:15.895Z,101010.84
2019-05-18T01:48:14.649Z,101004.67
2019-05-18T01:51:23.478Z,100997.45
2019-05-18T01:54:32.082Z,101007.36
2019-05-18T01:57:40.734Z,101002.70
2019-05-18T02:00:49.558Z,101009.28
2019-05-18T02:03:58.155Z,100997.81
2019-05-18T02:07:07.901Z,101005.67
2019-05-18T02:10:16.564Z,101002.44
2019-05-18T02:13:24.910Z,101006.66
2019-05-18T02:16:33.536Z,100997.93
2019-05-18T02:19:42.142Z,100996.56
2019-05-18T02:22:50.772Z,100995.27
2019-05-18T02:26:09.498Z,100993.73
2019-05-18T02:29:18.216Z,101002.27
2019-05-18T02:32:26.854Z,101004.27
2019-05-18T02:35:35.529Z,100999.28
2019-05-18T02:38:44.368Z,101000.89
2019-05-18T02:41:52.999Z,100992.50
2019-05-18T02:45:01.662Z,101009.17
2019-05-18T02:48:10.430Z,101002.08
2019-05-18T02:51:19.208Z,100998.01
2019-05-18T02:54:27.732Z,101001.23
2019-05-18T02:57:46.413Z,100992.06
2019-05-18T03:00:55.030Z,100989.98
2019-05-18T03:04:03.576Z,100990.70
2019-05-18T03:07:12.167Z,100984.31
2019-05-18T03:10:20.978Z,100990.36
2019-05-18T03:13:29.537Z,100990.41
2019-05-18T03:16:38.149Z,100985.50
2019-05-18T03:19:47.018Z,100990.28
2019-05-18T03:22:56.044Z,100986.96
2019-05-18T03:26:04.848Z,100990.70
2019-05-18T03:29:13.954Z,100993.42
2019-05-18T03:32:22.593Z,100991.49
2019-05-18T03:35:31.213Z,100989.60
2019-05-18T03:38:39.924Z,100991.34
2019-05-18T03:41:48.435Z,100990.75
2019-05-18T03:45:08.278Z,100985.48
2019-05-18T03:48:16.935Z,100988.21
2019-05-18T03:51:25.544Z,100980.42
2019-05-18T03:54:44.290Z,100983.52
2019-05-18T03:57:52.929Z,100986.22
2019-05-18T04:01:01.548Z,100985.09
2019-05-18T04:04:10.191Z,100981.66
2019-05-18T04:07:19.941Z,100984.08
2019-05-18T04:10:38.797Z,100983.56
2019-05-18T04:13:47.485Z,100983.04
2019-05-18T04:16:58.346Z,100981.47
2019-05-18T04:20:17.490Z,100975.59
2019-05-18T04:23:26.030Z,100971.09
2019-05-18T04:26:34.636Z,100975.99
2019-05-18T04:29:43.199Z,100966.84
2019-05-18T04:32:51.876Z,100971.74
2019-05-18T04:36:00.528Z,100976.37
2019-05-18T04:39:09.638Z,100971.39
2019-05-18T04:42:18.313Z,100971.38
2019-05-18T04:45:26.954Z,100974.75
2019-05-18T04:48:35.609Z,100977.59
2019-05-18T04:51:44.233Z,100988.88
2019-05-18T04:55:03.039Z,100984.22
2019-05-18T04:58:11.824Z,100990.89
2019-05-18T05:01:20.568Z,100988.45
2019-05-18T05:04:29.379Z,100987.53
2019-05-18T05:07:37.784Z,100994.64
2019-05-18T05:10:46.516Z,100983.82
2019-05-18T05:13:55.143Z,100984.03
2019-05-18T05:17:03.801Z,100981.11
2019-05-18T05:20:19.655Z,100985.09
2019-05-18T05:23:22.927Z,100981.25
2019-05-18T05:26:31.786Z,100990.54
2019-05-18T05:29:40.347Z,100988.79
2019-05-18T05:32:59.120Z,100978.68
2019-05-18T05:36:07.794Z,100976.36
2019-05-18T05:39:16.341Z,100976.76
2019-05-18T05:42:23.610Z,100977.89
2019-05-18T05:45:32.220Z,100985.08
2019-05-18T05:48:40.954Z,100975.91
2019-05-18T05:51:49.458Z,100979.38
2019-05-18T05:54:58.201Z,100980.81
2019-05-18T05:58:16.792Z,100964.58
2019-05-18T06:01:25.501Z,100980.54
2019-05-18T06:04:34.204Z,100978.26
2019-05-18T06:07:42.935Z,100976.30
2019-05-18T06:10:51.620Z,100977.80
2019-05-18T06:14:00.295Z,100977.89
2019-05-18T06:17:08.978Z,100969.16
2019-05-18T06:20:17.836Z,100973.77
2019-05-18T06:23:26.517Z,100969.02
2019-05-18T06:26:35.185Z,100973.13
2019-05-18T06:29:43.804Z,100971.88
2019-05-18T06:33:05.122Z,100981.41
2019-05-18T06:36:13.690Z,100982.21
2019-05-18T06:39:23.209Z,100984.02
2019-05-18T06:42:31.920Z,100982.50
2019-05-18T06:45:40.479Z,100972.73
2019-05-18T06:48:49.121Z,100986.41
2019-05-18T06:51:57.756Z,100985.16
2019-05-18T06:55:06.782Z,100982.83
2019-05-18T06:58:16.145Z,100994.50
2019-05-18T07:01:24.885Z,100992.77
2019-05-18T07:04:33.510Z,100987.40
2019-05-18T07:07:42.235Z,100990.74
2019-05-18T07:10:50.980Z,100987.64
2019-05-18T07:13:59.587Z,100981.40
2019-05-18T07:17:08.317Z,100986.64
2019-05-18T07:20:17.248Z,100990.61
2019-05-18T07:23:25.956Z,100983.27
2019-05-18T07:26:35.820Z,100984.64
2019-05-18T07:29:54.609Z,100983.02
2019-05-18T07:33:04.370Z,100980.36
2019-05-18T07:36:12.863Z,100974.98
2019-05-18T07:39:21.677Z,100973.60
2019-05-18T07:42:29.237Z,100974.98
2019-05-18T07:45:37.999Z,100980.56
2019-05-18T07:48:46.506Z,100980.85
2019-05-18T07:51:55.248Z,100983.32
2019-05-18T07:55:14.765Z,100972.13
2019-05-18T07:58:23.552Z,100969.20
2019-05-18T08:01:32.173Z,100968.48
2019-05-18T08:04:41.005Z,100968.50
2019-05-18T08:08:18.906Z,100964.20
2019-05-18T08:11:27.847Z,100968.66
2019-05-18T08:14:36.554Z,100960.23
2019-05-18T08:17:45.298Z,100963.27
2019-05-18T08:20:55.409Z,100957.89
2019-05-18T08:24:04.227Z,100968.81
2019-05-18T08:27:12.887Z,100963.42
2019-05-18T08:30:23.174Z,100962.09
2019-05-18T08:33:31.900Z,100956.25
2019-05-18T08:36:40.464Z,100953.55
2019-05-18T08:39:50.375Z,100960.41
2019-05-18T08:43:09.342Z,100955.38
2019-05-18T08:46:18.158Z,100954.63
2019-05-18T08:49:26.641Z,100958.14
2019-05-18T08:52:35.306Z,100958.19
2019-05-18T08:55:43.829Z,100952.30
2019-05-18T08:58:53.470Z,100950.96
2019-05-18T09:02:02.099Z,100950.96
2019-05-18T09:05:11.468Z,100947.89
2019-05-18T09:08:30.275Z,100943.04
2019-05-18T09:11:39.138Z,100951.10
2019-05-18T09:14:49.006Z,100946.08
2019-05-18T09:17:59.963Z,100942.63
2019-05-18T09:21:08.668Z,100944.39
2019-05-18T09:24:17.420Z,100943.94
2019-05-18T09:27:26.142Z,100945.45
2019-05-18T09:30:34.836Z,100944.91
2019-05-18T09:33:45.356Z,100936.52
2019-05-18T09:36:53.957Z,100935.66
2019-05-18T09:40:02.672Z,100935.23
2019-05-18T09:43:11.430Z,100936.97
2019-05-18T09:46:20.145Z,100932.37
2019-05-18T09:49:28.758Z,100924.14
2019-05-18T09:52:46.084Z,100924.34
2019-05-18T09:55:47.937Z,100915.43
2019-05-18T09:58:56.696Z,100921.28
2019-05-18T10:02:03.760Z,100918.27
2019-05-18T10:05:22.376Z,100917.44
2019-05-18T10:08:31.039Z,100920.10
2019-05-18T10:11:39.767Z,100918.24
2019-05-18T10:14:48.392Z,100912.80
2019-05-18T10:17:57.087Z,100911.72
2019-05-18T10:21:05.732Z,100906.36
2019-05-18T10:24:14.402Z,100904.59
2019-05-18T10:27:23.084Z,100898.67
2019-05-18T10:30:31.706Z,100897.37
2019-05-18T10:33:50.508Z,100895.38
2019-05-18T10:36:59.111Z,100902.80
2019-05-18T10:40:10.981Z,100900.39
2019-05-18T10:43:19.712Z,100893.29
2019-05-18T10:46:30.110Z,100894.13
2019-05-18T10:49:38.903Z,100885.31
2019-05-18T10:52:47.542Z,100888.41
2019-05-18T10:55:56.155Z,100887.03
2019-05-18T10:59:04.874Z,100882.90
2019-05-18T11:02:13.499Z,100876.29
2019-05-18T11:05:32.357Z,100870.77
2019-05-18T11:08:41.126Z,100879.53
2019-05-18T11:11:50.729Z,100874.75
2019-05-18T11:14:59.464Z,100877.48
2019-05-18T11:18:08.208Z,100864.78
2019-05-18T11:21:16.798Z,100860.14
2019-05-18T11:24:36.688Z,100861.94
2019-05-18T11:27:45.541Z,100864.54
2019-05-18T11:30:54.041Z,100863.23
2019-05-18T11:34:02.989Z,100861.30
2019-05-18T11:37:11.556Z,100859.18
2019-05-18T11:40:20.526Z,100853.27
2019-05-18T11:43:29.139Z,100852.42
2019-05-18T11:46:37.882Z,100859.05
2019-05-18T11:49:46.685Z,100855.72
2019-05-18T11:52:55.532Z,100850.02
2019-05-18T11:56:05.397Z,100847.53
2019-05-18T11:59:15.728Z,100850.85
2019-05-18T12:02:36.273Z,100843.13
2019-05-18T12:05:48.840Z,100845.86
2019-05-18T12:09:08.363Z,100846.72
2019-05-18T12:12:27.191Z,100828.31
2019-05-18T12:15:36.043Z,100824.16
2019-05-18T12:18:44.766Z,100828.84
2019-05-18T12:21:53.657Z,100818.65
2019-05-18T12:25:02.262Z,100818.66
2019-05-18T12:28:11.066Z,100818.63
2019-05-18T12:31:19.743Z,100822.18
2019-05-18T12:34:28.494Z,100820.25
2019-05-18T12:37:37.121Z,100826.22
2019-05-18T12:40:45.993Z,100823.49
2019-05-18T12:43:54.661Z,100831.50
2019-05-18T12:47:04.026Z,100821.83
2019-05-18T12:50:13.155Z,100819.03
2019-05-18T12:53:32.023Z,100814.18
2019-05-18T12:56:40.834Z,100814.14
2019-05-18T12:59:49.470Z,100813.89
2019-05-18T13:02:58.976Z,100806.18
2019-05-18T13:06:07.762Z,100806.14
2019-05-18T13:09:26.563Z,100800.61
2019-05-18T13:12:35.248Z,100806.37
2019-05-18T13:15:43.965Z,100802.88
2019-05-18T13:18:52.976Z,100799.39
2019-05-18T13:22:01.895Z,100795.59
2019-05-18T13:25:12.267Z,100793.50
2019-05-18T13:28:21.938Z,100791.48
2019-05-18T13:31:30.769Z,100782.65
2019-05-18T13:34:39.294Z,100780.71
2019-05-18T13:37:48.094Z,100789.66
2019-05-18T13:40:56.929Z,100785.24
2019-05-18T13:44:05.823Z,100789.10
2019-05-18T13:47:14.521Z,100776.66
2019-05-18T13:50:23.609Z,100784.19
2019-05-18T13:53:32.336Z,100782.73
2019-05-18T13:56:41.065Z,100787.50
2019-05-18T13:59:49.731Z,100786.17
2019-05-18T14:02:58.341Z,100775.14
2019-05-18T14:06:17.182Z,100770.30
2019-05-18T14:09:24.465Z,100779.13
2019-05-18T14:12:33.286Z,100781.12
2019-05-18T14:15:42.024Z,100769.69
2019-05-18T14:18:50.778Z,100765.29
2019-05-18T14:21:59.332Z,100765.52
2019-05-18T14:25:18.831Z,100757.02
2019-05-18T14:28:18.507Z,100762.87
2019-05-18T14:31:27.085Z,100757.62
2019-05-18T14:34:35.807Z,100758.24
2019-05-18T14:37:44.629Z,100762.87
2019-05-18T14:40:53.337Z,100752.05
2019-05-18T14:44:02.079Z,100752.64
2019-05-18T14:47:10.859Z,100753.95
2019-05-18T14:50:21.273Z,100747.88
2019-05-18T14:53:30.104Z,100745.14
2019-05-18T14:56:40.617Z,100752.66
2019-05-18T14:59:49.252Z,100744.64
2019-05-18T15:02:57.954Z,100745.95
2019-05-18T15:06:06.568Z,100751.55
2019-05-18T15:09:15.365Z,100751.28
2019-05-18T15:12:24.091Z,100744.92
2019-05-18T15:15:43.067Z,100741.94
2019-05-18T15:18:51.699Z,100746.63
2019-05-18T15:22:00.191Z,100746.30
2019-05-18T15:25:09.075Z,100738.09
2019-05-18T15:28:28.838Z,100743.16
2019-05-18T15:31:47.990Z,100739.40
2019-05-18T15:34:56.818Z,100741.41
2019-05-18T15:38:05.410Z,100729.05
2019-05-18T15:41:14.267Z,100735.41
2019-05-18T15:44:22.795Z,100738.71
2019-05-18T15:47:31.622Z,100732.67
2019-05-18T15:50:40.352Z,100732.36
2019-05-18T15:53:49.012Z,100729.88
2019-05-18T15:56:57.715Z,100732.36
2019-05-18T16:00:07.435Z,100741.73
2019-05-18T16:03:32.555Z,100735.69
2019-05-18T16:06:41.317Z,100743.13
2019-05-18T16:09:49.975Z,100739.83
2019-05-18T16:12:58.564Z,100744.48
2019-05-18T16:16:07.233Z,100740.37
2019-05-18T16:19:15.894Z,100744.76
2019-05-18T16:22:30.517Z,100740.62
2019-05-18T16:26:20.822Z,100736.49
2019-05-18T16:29:19.323Z,100746.69
2019-05-18T16:32:28.045Z,100737.88
2019-05-18T16:35:36.632Z,100737.61
2019-05-18T16:38:45.487Z,100738.42
2019-05-18T16:41:55.147Z,100735.42
2019-05-18T16:45:14.621Z,100735.70
2019-05-18T16:48:23.454Z,100729.33
2019-05-18T16:51:33.248Z,100732.92
2019-05-18T16:54:41.827Z,100736.22
2019-05-18T16:57:50.516Z,100732.11
2019-05-18T17:00:59.097Z,100735.95
2019-05-18T17:04:07.815Z,100736.23
2019-05-18T17:07:16.527Z,100741.75
2019-05-18T17:10:25.030Z,100739.00
2019-05-18T17:13:33.903Z,100743.13
2019-05-18T17:16:42.324Z,100740.91
2019-05-18T17:20:01.167Z,100750.27
2019-05-18T17:23:09.830Z,100760.95
2019-05-18T17:26:19.779Z,100765.58
2019-05-18T17:29:28.352Z,100766.64
2019-05-18T17:32:36.864Z,100763.85
2019-05-18T17:36:00.322Z,100769.39
2019-05-18T17:39:07.853Z,100773.46
2019-05-18T17:42:33.143Z,100776.48
2019-05-18T17:45:43.414Z,100771.23
2019-05-18T17:48:51.975Z,100775.86
2019-05-18T17:52:00.485Z,100773.94
2019-05-18T17:55:09.205Z,100771.69
2019-05-18T17:58:17.842Z,100773.58
2019-05-18T18:01:26.349Z,100773.75
2019-05-18T18:04:48.879Z,100769.60
2019-05-18T18:07:57.112Z,100773.10
2019-05-18T18:11:05.628Z,100773.05
2019-05-18T18:14:14.275Z,100776.89
2019-05-18T18:17:22.906Z,100780.19
2019-05-18T18:20:31.458Z,100783.69
2019-05-18T18:23:40.055Z,100777.58
2019-05-18T18:26:58.768Z,100777.75
2019-05-18T18:30:08.410Z,100782.33
2019-05-18T18:33:17.080Z,100779.48
2019-05-18T18:36:25.812Z,100775.27
2019-05-18T18:39:44.475Z,100779.55
2019-05-18T18:42:53.161Z,100787.94
2019-05-18T18:46:02.377Z,100787.14
2019-05-18T18:49:11.023Z,100791.15
2019-05-18T18:52:19.533Z,100785.87
2019-05-18T18:55:28.081Z,100794.58
2019-05-18T18:58:38.065Z,100784.89
2019-05-18T19:01:46.712Z,100796.33
2019-05-18T19:05:07.420Z,100792.53
2019-05-18T19:08:28.241Z,100793.16
2019-05-18T19:11:36.824Z,100800.15
2019-05-18T19:14:45.472Z,100803.68
2019-05-18T19:17:54.034Z,100805.27
2019-05-18T19:21:02.643Z,100807.31
2019-05-18T19:24:11.180Z,100809.42
2019-05-18T19:27:20.150Z,100814.31
2019-05-18T19:30:28.694Z,100810.66
2019-05-18T19:33:37.329Z,100813.34
2019-05-18T19:36:56.123Z,100811.73
2019-05-18T19:40:04.938Z,100821.60
2019-05-18T19:43:13.529Z,100821.55
2019-05-18T19:46:22.159Z,100825.80
2019-05-18T19:49:30.772Z,100831.58
2019-05-18T19:52:39.504Z,100829.78
2019-05-18T19:55:48.045Z,100828.29
2019-05-18T19:58:56.665Z,100843.70
2019-05-18T20:02:18.338Z,100844.14
2019-05-18T20:05:25.680Z,100841.27
2019-05-18T20:08:34.356Z,100849.95
2019-05-18T20:11:42.932Z,100848.89
2019-05-18T20:14:51.506Z,100851.84
2019-05-18T20:18:00.164Z,100847.86
2019-05-18T20:21:07.747Z,100842.36
2019-05-18T20:24:16.426Z,100838.92
2019-05-18T20:27:25.207Z,100838.48
2019-05-18T20:30:33.827Z,100846.02
2019-05-18T20:33:41.127Z,100835.64
2019-05-18T20:36:49.747Z,100841.05
2019-05-18T20:39:58.344Z,100842.55
2019-05-18T20:43:10.055Z,100846.13
2019-05-18T20:46:29.010Z,100842.70
2019-05-18T20:49:37.570Z,100843.37
2019-05-18T20:52:46.176Z,100845.81
2019-05-18T20:55:54.818Z,100846.94
2019-05-18T20:59:03.586Z,100853.33
2019-05-18T21:02:12.261Z,100847.75
2019-05-18T21:05:20.957Z,100843.37
2019-05-18T21:08:29.545Z,100846.19
2019-05-18T21:11:48.329Z,100843.75
2019-05-18T21:14:56.957Z,100847.03
2019-05-18T21:18:05.509Z,100852.88
2019-05-18T21:21:14.138Z,100850.80
2019-05-18T21:24:22.659Z,100851.94
2019-05-18T21:27:31.645Z,100854.54
2019-05-18T21:30:40.167Z,100861.92
2019-05-18T21:33:58.825Z,100858.71
2019-05-18T21:37:07.409Z,100863.09
2019-05-18T21:40:16.253Z,100855.94
2019-05-18T21:43:24.766Z,100865.33
2019-05-18T21:46:33.465Z,100862.55
2019-05-18T21:49:42.003Z,100871.42
2019-05-18T21:52:50.518Z,100868.08
2019-05-18T21:56:10.314Z,100869.03
2019-05-18T21:59:18.951Z,100860.87
2019-05-18T22:02:29.107Z,100863.42
2019-05-18T22:05:38.101Z,100858.36
2019-05-18T22:08:46.726Z,100858.67
2019-05-18T22:11:55.345Z,100859.33
2019-05-18T22:15:04.294Z,100846.34
2019-05-18T22:18:24.020Z,100854.34
2019-05-18T22:21:23.324Z,100857.45
2019-05-18T22:24:31.969Z,100858.32
2019-05-18T22:27:40.727Z,100865.00
2019-05-18T22:30:49.561Z,100855.14
2019-05-18T22:33:58.046Z,100860.52
2019-05-18T22:37:16.846Z,100862.49
2019-05-18T22:40:25.549Z,100861.66
2019-05-18T22:43:34.177Z,100855.42
2019-05-18T22:46:42.910Z,100857.06
2019-05-18T22:49:51.604Z,100849.81
2019-05-18T22:53:00.575Z,100845.66
2019-05-18T22:56:09.293Z,100852.42
2019-05-18T22:59:18.017Z,100846.58
2019-05-18T23:02:26.545Z,100844.90
2019-05-18T23:05:35.161Z,100853.16
2019-05-18T23:08:43.978Z,100850.81
2019-05-18T23:11:52.654Z,100845.41
2019-05-18T23:15:01.651Z,100847.94
2019-05-18T23:18:11.998Z,100839.73
2019-05-18T23:21:20.623Z,100847.42
2019-05-18T23:24:30.075Z,100833.29
2019-05-18T23:27:40.048Z,100837.88
2019-05-18T23:30:50.392Z,100830.11
2019-05-18T23:33:58.697Z,100822.47
2019-05-18T23:37:07.423Z,100829.31
2019-05-18T23:40:15.903Z,100828.42
2019-05-18T23:43:24.676Z,100829.97
2019-05-18T23:46:33.385Z,100827.78
2019-05-18T23:49:42.001Z,100826.66
2019-05-18T23:52:50.770Z,100826.31
2019-05-18T23:55:59.684Z,100827.34
2019-05-18T23:59:08.421Z,100822.78
